BAW1124 EGLL-LSZH
Flight info
| Callsign | BAW1124 |
|---|---|
| Flight time | 1h 10m |
| Altitude | 29000 |
| Route | DET L6 DVR UL9 KONAN DCT KOK DCT SISGA DCT RITAX DCT KRH M150 LAMGO/N0439F270 T721 SUL/N0426F250 T721 RILAX |
| Aircraft | B772/H-SDE2E3FGHIJ5LORVWXY/LB1D1 |
Departure
| Time | 2026-04-26 10:26 |
|---|---|
| Airport | London Heathrow Airport (EGLL) |
Arrival
| Time | 2026-04-26 11:36 |
|---|---|
| Airport | Zürich Airport (LSZH) |
| Time | Latitude | Longitude | Altitude | Speed | Heading |
|---|---|---|---|---|---|
| 2026-04-26 09:58 | 51.47114 | -0.48234 | 91 ft | 0 kts | 90° |
| 2026-04-26 10:13 | 51.47114 | -0.48239 | 94 ft | 3 kts | 89° |
| 2026-04-26 10:13 | 51.47113 | -0.48281 | 91 ft | 4 kts | 83° |
| 2026-04-26 10:14 | 51.47111 | -0.48308 | 91 ft | 4 kts | 94° |
| 2026-04-26 10:14 | 51.47121 | -0.48346 | 92 ft | 4 kts | 140° |
| 2026-04-26 10:14 | 51.47132 | -0.48357 | 94 ft | 4 kts | 170° |
| 2026-04-26 10:14 | 51.47158 | -0.48360 | 93 ft | 3 kts | 180° |
| 2026-04-26 10:15 | 51.47161 | -0.48360 | 92 ft | 0 kts | 180° |
| 2026-04-26 10:18 | 51.47100 | -0.48361 | 92 ft | 14 kts | 180° |
| 2026-04-26 10:18 | 51.47001 | -0.48359 | 92 ft | 14 kts | 179° |
| 2026-04-26 10:19 | 51.46902 | -0.48359 | 94 ft | 14 kts | 179° |
| 2026-04-26 10:19 | 51.46853 | -0.48358 | 94 ft | 5 kts | 179° |
| 2026-04-26 10:19 | 51.46843 | -0.48358 | 94 ft | 0 kts | 179° |
| 2026-04-26 10:19 | 51.46840 | -0.48358 | 94 ft | 3 kts | 179° |
| 2026-04-26 10:20 | 51.46784 | -0.48359 | 94 ft | 9 kts | 187° |
| 2026-04-26 10:20 | 51.46744 | -0.48434 | 92 ft | 10 kts | 259° |
| 2026-04-26 10:20 | 51.46741 | -0.48543 | 91 ft | 12 kts | 269° |
| 2026-04-26 10:20 | 51.46739 | -0.48686 | 91 ft | 11 kts | 265° |
| 2026-04-26 10:21 | 51.46703 | -0.48746 | 95 ft | 7 kts | 209° |
| 2026-04-26 10:21 | 51.46672 | -0.48754 | 95 ft | 0 kts | 178° |
| 2026-04-26 10:21 | 51.46670 | -0.48754 | 95 ft | 3 kts | 178° |
| 2026-04-26 10:22 | 51.46646 | -0.48755 | 94 ft | 0 kts | 184° |
| 2026-04-26 10:24 | 51.46630 | -0.48759 | 92 ft | 9 kts | 191° |
| 2026-04-26 10:24 | 51.46554 | -0.48782 | 95 ft | 12 kts | 181° |
| 2026-04-26 10:25 | 51.46488 | -0.48720 | 96 ft | 12 kts | 116° |
| 2026-04-26 10:25 | 51.46479 | -0.48492 | 93 ft | 39 kts | 89° |
| 2026-04-26 10:25 | 51.46480 | -0.47580 | 91 ft | 127 kts | 90° |
| 2026-04-26 10:25 | 51.46506 | -0.45798 | 324 ft | 179 kts | 88° |
| 2026-04-26 10:26 | 51.46443 | -0.43646 | 1108 ft | 204 kts | 100° |
| 2026-04-26 10:26 | 51.46157 | -0.41436 | 2228 ft | 199 kts | 102° |
| 2026-04-26 10:26 | 51.45737 | -0.39254 | 2848 ft | 212 kts | 125° |
| 2026-04-26 10:26 | 51.44573 | -0.37697 | 3407 ft | 227 kts | 145° |
| 2026-04-26 10:27 | 51.43508 | -0.35723 | 3735 ft | 248 kts | 108° |
| 2026-04-26 10:27 | 51.43229 | -0.33021 | 4551 ft | 247 kts | 97° |
| 2026-04-26 10:27 | 51.42957 | -0.30225 | 5013 ft | 260 kts | 100° |
| 2026-04-26 10:27 | 51.42623 | -0.27399 | 4996 ft | 260 kts | 102° |
| 2026-04-26 10:28 | 51.42251 | -0.24532 | 5061 ft | 262 kts | 102° |
| 2026-04-26 10:28 | 51.41864 | -0.21685 | 5586 ft | 267 kts | 102° |
| 2026-04-26 10:28 | 51.41469 | -0.18778 | 5902 ft | 269 kts | 102° |
| 2026-04-26 10:28 | 51.41063 | -0.15818 | 6023 ft | 275 kts | 102° |
| 2026-04-26 10:29 | 51.40653 | -0.12838 | 6095 ft | 271 kts | 102° |
| 2026-04-26 10:29 | 51.40248 | -0.09913 | 6502 ft | 269 kts | 102° |
| 2026-04-26 10:29 | 51.39836 | -0.06939 | 7015 ft | 274 kts | 102° |
| 2026-04-26 10:29 | 51.39423 | -0.03948 | 7515 ft | 277 kts | 102° |
| 2026-04-26 10:30 | 51.39006 | -0.00937 | 7998 ft | 278 kts | 102° |
| 2026-04-26 10:30 | 51.38583 | 0.02100 | 8514 ft | 281 kts | 103° |
| 2026-04-26 10:30 | 51.38154 | 0.05173 | 9037 ft | 284 kts | 103° |
| 2026-04-26 10:30 | 51.37722 | 0.08263 | 9651 ft | 286 kts | 103° |
| 2026-04-26 10:31 | 51.37285 | 0.11384 | 10313 ft | 289 kts | 103° |
| 2026-04-26 10:31 | 51.36847 | 0.14500 | 10913 ft | 292 kts | 103° |
| 2026-04-26 10:31 | 51.36398 | 0.17700 | 11544 ft | 295 kts | 103° |
| 2026-04-26 10:31 | 51.35941 | 0.20937 | 12290 ft | 302 kts | 103° |
| 2026-04-26 10:32 | 51.35474 | 0.24250 | 13075 ft | 309 kts | 103° |
| 2026-04-26 10:32 | 51.34992 | 0.27658 | 13877 ft | 317 kts | 103° |
| 2026-04-26 10:32 | 51.34498 | 0.31129 | 14637 ft | 323 kts | 103° |
| 2026-04-26 10:32 | 51.33994 | 0.34666 | 15296 ft | 330 kts | 103° |
| 2026-04-26 10:33 | 51.33481 | 0.38276 | 16032 ft | 336 kts | 103° |
| 2026-04-26 10:33 | 51.32957 | 0.41949 | 16826 ft | 341 kts | 103° |
| 2026-04-26 10:33 | 51.32430 | 0.45628 | 17604 ft | 346 kts | 103° |
| 2026-04-26 10:33 | 51.31880 | 0.49460 | 18419 ft | 351 kts | 103° |
| 2026-04-26 10:34 | 51.31335 | 0.53239 | 19133 ft | 355 kts | 104° |
| 2026-04-26 10:34 | 51.30777 | 0.57098 | 19848 ft | 359 kts | 103° |
| 2026-04-26 10:34 | 51.30199 | 0.60994 | 20580 ft | 361 kts | 105° |
| 2026-04-26 10:34 | 51.29529 | 0.64871 | 21335 ft | 363 kts | 107° |
| 2026-04-26 10:35 | 51.28813 | 0.68743 | 22107 ft | 364 kts | 107° |
| 2026-04-26 10:35 | 51.28085 | 0.72622 | 22906 ft | 364 kts | 107° |
| 2026-04-26 10:35 | 51.27360 | 0.76494 | 23703 ft | 364 kts | 107° |
| 2026-04-26 10:35 | 51.26640 | 0.80366 | 24417 ft | 363 kts | 107° |
| 2026-04-26 10:36 | 51.25925 | 0.84229 | 25088 ft | 363 kts | 107° |
| 2026-04-26 10:36 | 51.25205 | 0.88126 | 25553 ft | 370 kts | 107° |
| 2026-04-26 10:36 | 51.24473 | 0.92088 | 26033 ft | 376 kts | 107° |
| 2026-04-26 10:36 | 51.23728 | 0.96120 | 26497 ft | 382 kts | 107° |
| 2026-04-26 10:37 | 51.22967 | 1.00234 | 26963 ft | 388 kts | 107° |
| 2026-04-26 10:37 | 51.22196 | 1.04390 | 27439 ft | 394 kts | 107° |
| 2026-04-26 10:37 | 51.21412 | 1.08609 | 27927 ft | 400 kts | 107° |
| 2026-04-26 10:37 | 51.20614 | 1.12892 | 28416 ft | 406 kts | 107° |
| 2026-04-26 10:38 | 51.19806 | 1.17227 | 28911 ft | 411 kts | 107° |
| 2026-04-26 10:38 | 51.18982 | 1.21631 | 29418 ft | 417 kts | 107° |
| 2026-04-26 10:38 | 51.18148 | 1.26085 | 29941 ft | 422 kts | 107° |
| 2026-04-26 10:38 | 51.17301 | 1.30587 | 30446 ft | 427 kts | 107° |
| 2026-04-26 10:39 | 51.16524 | 1.35190 | 30896 ft | 432 kts | 102° |
| 2026-04-26 10:39 | 51.16029 | 1.39949 | 31316 ft | 439 kts | 96° |
| 2026-04-26 10:39 | 51.15768 | 1.44880 | 31329 ft | 455 kts | 94° |
| 2026-04-26 10:39 | 51.15547 | 1.49986 | 31342 ft | 470 kts | 94° |
| 2026-04-26 10:40 | 51.15326 | 1.55261 | 31351 ft | 483 kts | 94° |
| 2026-04-26 10:40 | 51.15091 | 1.60600 | 31346 ft | 493 kts | 94° |
| 2026-04-26 10:40 | 51.14567 | 1.71527 | 31582 ft | 493 kts | 94° |
| 2026-04-26 10:41 | 51.14292 | 1.76976 | 31831 ft | 496 kts | 94° |
| 2026-04-26 10:41 | 51.14010 | 1.82466 | 32090 ft | 499 kts | 94° |
| 2026-04-26 10:41 | 51.13725 | 1.87997 | 32355 ft | 502 kts | 94° |
| 2026-04-26 10:41 | 51.13438 | 1.93549 | 32620 ft | 504 kts | 94° |
| 2026-04-26 10:42 | 51.13145 | 1.99151 | 32878 ft | 506 kts | 94° |
| 2026-04-26 10:42 | 51.12851 | 2.04736 | 33140 ft | 508 kts | 94° |
| 2026-04-26 10:42 | 51.12551 | 2.10357 | 33409 ft | 509 kts | 94° |
| 2026-04-26 10:42 | 51.12250 | 2.15977 | 33678 ft | 510 kts | 94° |
| 2026-04-26 10:43 | 51.11946 | 2.21599 | 33954 ft | 511 kts | 94° |
| 2026-04-26 10:43 | 51.11642 | 2.27173 | 34223 ft | 512 kts | 94° |
| 2026-04-26 10:43 | 51.11331 | 2.32842 | 34477 ft | 513 kts | 95° |
| 2026-04-26 10:43 | 51.11018 | 2.38489 | 34716 ft | 513 kts | 95° |
| 2026-04-26 10:44 | 51.10702 | 2.44148 | 34962 ft | 514 kts | 95° |
| 2026-04-26 10:44 | 51.10383 | 2.49811 | 35204 ft | 514 kts | 95° |
| 2026-04-26 10:44 | 51.09500 | 2.61174 | 35330 ft | 518 kts | 102° |
| 2026-04-26 10:45 | 51.08554 | 2.66641 | 35328 ft | 507 kts | 109° |
| 2026-04-26 10:45 | 51.07325 | 2.71843 | 35333 ft | 500 kts | 114° |
| 2026-04-26 10:45 | 51.04141 | 2.81613 | 35348 ft | 498 kts | 119° |
| 2026-04-26 10:46 | 51.00831 | 2.91334 | 35347 ft | 500 kts | 119° |
| 2026-04-26 10:46 | 50.97562 | 3.01024 | 35345 ft | 502 kts | 118° |
| 2026-04-26 10:47 | 50.94276 | 3.10818 | 35338 ft | 502 kts | 118° |
| 2026-04-26 10:47 | 50.90989 | 3.20596 | 35328 ft | 503 kts | 118° |
| 2026-04-26 10:48 | 50.87685 | 3.30377 | 35310 ft | 503 kts | 118° |
| 2026-04-26 10:48 | 50.84386 | 3.40103 | 35320 ft | 501 kts | 118° |
| 2026-04-26 10:49 | 50.81084 | 3.49796 | 35304 ft | 500 kts | 119° |
| 2026-04-26 10:49 | 50.77802 | 3.59395 | 35321 ft | 499 kts | 118° |
| 2026-04-26 10:50 | 50.75030 | 3.67474 | 35321 ft | 499 kts | 119° |
| 2026-04-26 10:50 | 50.71174 | 3.78675 | 35316 ft | 499 kts | 119° |
| 2026-04-26 10:51 | 50.66180 | 3.93107 | 35312 ft | 499 kts | 119° |
| 2026-04-26 10:52 | 50.62844 | 4.02705 | 35312 ft | 499 kts | 119° |
| 2026-04-26 10:52 | 50.59726 | 4.12407 | 35315 ft | 499 kts | 115° |
| 2026-04-26 10:53 | 50.56786 | 4.22317 | 35299 ft | 499 kts | 115° |
| 2026-04-26 10:53 | 50.53854 | 4.32196 | 35328 ft | 499 kts | 115° |
| 2026-04-26 10:54 | 50.49405 | 4.46980 | 35307 ft | 498 kts | 115° |
| 2026-04-26 10:54 | 50.46419 | 4.56815 | 35325 ft | 499 kts | 115° |
| 2026-04-26 10:55 | 50.43429 | 4.66628 | 35326 ft | 498 kts | 115° |
| 2026-04-26 10:55 | 50.40938 | 4.74775 | 35319 ft | 498 kts | 115° |
| 2026-04-26 10:56 | 50.37429 | 4.86209 | 35308 ft | 498 kts | 115° |
| 2026-04-26 10:56 | 50.34437 | 4.95915 | 35298 ft | 497 kts | 115° |
| 2026-04-26 10:57 | 50.31423 | 5.05654 | 35291 ft | 497 kts | 115° |
| 2026-04-26 10:57 | 50.28402 | 5.15378 | 35288 ft | 497 kts | 115° |
| 2026-04-26 10:58 | 50.25369 | 5.25101 | 35283 ft | 497 kts | 115° |
| 2026-04-26 10:58 | 50.22328 | 5.34814 | 35278 ft | 497 kts | 116° |
| 2026-04-26 10:59 | 50.19283 | 5.44497 | 35283 ft | 497 kts | 116° |
| 2026-04-26 10:59 | 50.16223 | 5.54194 | 35272 ft | 497 kts | 116° |
| 2026-04-26 11:00 | 50.13183 | 5.63792 | 35253 ft | 497 kts | 116° |
| 2026-04-26 11:00 | 50.10116 | 5.73437 | 35267 ft | 496 kts | 116° |
| 2026-04-26 11:01 | 50.07524 | 5.81493 | 35247 ft | 496 kts | 118° |
| 2026-04-26 11:01 | 50.03543 | 5.92347 | 35265 ft | 497 kts | 120° |
| 2026-04-26 11:02 | 50.00633 | 6.00048 | 35246 ft | 497 kts | 120° |
| 2026-04-26 11:02 | 49.97134 | 6.09326 | 35258 ft | 497 kts | 120° |
| 2026-04-26 11:03 | 49.93643 | 6.18616 | 35253 ft | 498 kts | 120° |
| 2026-04-26 11:03 | 49.90150 | 6.27896 | 35264 ft | 498 kts | 120° |
| 2026-04-26 11:04 | 49.86652 | 6.37163 | 35245 ft | 497 kts | 120° |
| 2026-04-26 11:04 | 49.83150 | 6.46399 | 35246 ft | 497 kts | 120° |
| 2026-04-26 11:05 | 49.79646 | 6.55607 | 35262 ft | 497 kts | 120° |
| 2026-04-26 11:05 | 49.76129 | 6.64821 | 35261 ft | 496 kts | 120° |
| 2026-04-26 11:06 | 49.72608 | 6.74010 | 35245 ft | 497 kts | 120° |
| 2026-04-26 11:06 | 49.69077 | 6.83189 | 35240 ft | 497 kts | 120° |
| 2026-04-26 11:07 | 49.65565 | 6.92292 | 35240 ft | 497 kts | 120° |
| 2026-04-26 11:07 | 49.62017 | 7.01456 | 35249 ft | 497 kts | 120° |
| 2026-04-26 11:08 | 49.58460 | 7.10612 | 35250 ft | 497 kts | 120° |
| 2026-04-26 11:08 | 49.54894 | 7.19755 | 35253 ft | 497 kts | 120° |
| 2026-04-26 11:09 | 49.51323 | 7.28883 | 35249 ft | 497 kts | 120° |
| 2026-04-26 11:09 | 49.47747 | 7.37988 | 35253 ft | 497 kts | 121° |
| 2026-04-26 11:10 | 49.44186 | 7.47028 | 35242 ft | 497 kts | 121° |
| 2026-04-26 11:10 | 49.40594 | 7.56114 | 35261 ft | 497 kts | 121° |
| 2026-04-26 11:11 | 49.36997 | 7.65181 | 35244 ft | 497 kts | 121° |
| 2026-04-26 11:11 | 49.33383 | 7.74260 | 35251 ft | 497 kts | 121° |
| 2026-04-26 11:12 | 49.29769 | 7.83307 | 35250 ft | 498 kts | 121° |
| 2026-04-26 11:12 | 49.26171 | 7.92285 | 35259 ft | 497 kts | 121° |
| 2026-04-26 11:13 | 49.22548 | 8.01295 | 35260 ft | 497 kts | 121° |
| 2026-04-26 11:13 | 49.18918 | 8.10291 | 35260 ft | 497 kts | 121° |
| 2026-04-26 11:14 | 49.15284 | 8.19265 | 35254 ft | 496 kts | 121° |
| 2026-04-26 11:14 | 49.11647 | 8.28220 | 35272 ft | 496 kts | 122° |
| 2026-04-26 11:15 | 49.07997 | 8.37175 | 35246 ft | 495 kts | 122° |
| 2026-04-26 11:15 | 49.04358 | 8.46076 | 35243 ft | 495 kts | 122° |
| 2026-04-26 11:16 | 49.00738 | 8.54902 | 35189 ft | 495 kts | 122° |
| 2026-04-26 11:16 | 48.98827 | 8.59312 | 34278 ft | 501 kts | 126° |
| 2026-04-26 11:16 | 48.96651 | 8.63442 | 33278 ft | 501 kts | 131° |
| 2026-04-26 11:17 | 48.94375 | 8.67463 | 32259 ft | 502 kts | 131° |
| 2026-04-26 11:17 | 48.92027 | 8.71373 | 31192 ft | 498 kts | 139° |
| 2026-04-26 11:17 | 48.89153 | 8.74331 | 30075 ft | 498 kts | 157° |
| 2026-04-26 11:17 | 48.85889 | 8.75911 | 29210 ft | 489 kts | 171° |
| 2026-04-26 11:18 | 48.82577 | 8.76376 | 28309 ft | 480 kts | 184° |
| 2026-04-26 11:18 | 48.79330 | 8.75670 | 27520 ft | 465 kts | 194° |
| 2026-04-26 11:18 | 48.76173 | 8.74711 | 26735 ft | 460 kts | 193° |
| 2026-04-26 11:18 | 48.73052 | 8.73794 | 25982 ft | 455 kts | 193° |
| 2026-04-26 11:19 | 48.69945 | 8.72917 | 25199 ft | 450 kts | 192° |
| 2026-04-26 11:19 | 48.66881 | 8.72079 | 24470 ft | 446 kts | 192° |
| 2026-04-26 11:19 | 48.63841 | 8.71266 | 23701 ft | 441 kts | 192° |
| 2026-04-26 11:19 | 48.60831 | 8.70469 | 22865 ft | 437 kts | 192° |
| 2026-04-26 11:20 | 48.57842 | 8.69681 | 22099 ft | 432 kts | 192° |
| 2026-04-26 11:20 | 48.55890 | 8.69167 | 21616 ft | 428 kts | 192° |
| 2026-04-26 11:20 | 48.51992 | 8.68138 | 20689 ft | 422 kts | 192° |
| 2026-04-26 11:20 | 48.49122 | 8.67379 | 20016 ft | 418 kts | 192° |
| 2026-04-26 11:21 | 48.46263 | 8.66625 | 19352 ft | 415 kts | 192° |
| 2026-04-26 11:21 | 48.43420 | 8.65875 | 18692 ft | 413 kts | 192° |
| 2026-04-26 11:21 | 48.40626 | 8.65138 | 17986 ft | 412 kts | 192° |
| 2026-04-26 11:21 | 48.37808 | 8.64397 | 17299 ft | 410 kts | 192° |
| 2026-04-26 11:22 | 48.35016 | 8.63594 | 16621 ft | 407 kts | 193° |
| 2026-04-26 11:22 | 48.32244 | 8.62749 | 15993 ft | 405 kts | 193° |
| 2026-04-26 11:22 | 48.29497 | 8.61903 | 15356 ft | 403 kts | 193° |
| 2026-04-26 11:22 | 48.26750 | 8.61064 | 14745 ft | 401 kts | 193° |
| 2026-04-26 11:23 | 48.24016 | 8.60236 | 14122 ft | 400 kts | 193° |
| 2026-04-26 11:23 | 48.21301 | 8.59413 | 13543 ft | 396 kts | 192° |
| 2026-04-26 11:23 | 48.18605 | 8.58607 | 13015 ft | 392 kts | 192° |
| 2026-04-26 11:23 | 48.15954 | 8.57818 | 12483 ft | 386 kts | 192° |
| 2026-04-26 11:24 | 48.13335 | 8.57044 | 11956 ft | 381 kts | 192° |
| 2026-04-26 11:24 | 48.10747 | 8.56277 | 11422 ft | 376 kts | 192° |
| 2026-04-26 11:24 | 48.08253 | 8.55533 | 11282 ft | 362 kts | 192° |
| 2026-04-26 11:24 | 48.05833 | 8.54815 | 11226 ft | 348 kts | 192° |
| 2026-04-26 11:25 | 48.03495 | 8.54124 | 11074 ft | 335 kts | 193° |
| 2026-04-26 11:25 | 48.01255 | 8.53462 | 10997 ft | 322 kts | 193° |
| 2026-04-26 11:25 | 47.99090 | 8.52822 | 10874 ft | 310 kts | 193° |
| 2026-04-26 11:25 | 47.97020 | 8.52204 | 10842 ft | 299 kts | 193° |
| 2026-04-26 11:26 | 47.95004 | 8.51608 | 10708 ft | 291 kts | 193° |
| 2026-04-26 11:26 | 47.93041 | 8.51024 | 10582 ft | 285 kts | 193° |
| 2026-04-26 11:26 | 47.91099 | 8.50433 | 10342 ft | 284 kts | 193° |
| 2026-04-26 11:26 | 47.89173 | 8.49847 | 10132 ft | 281 kts | 192° |
| 2026-04-26 11:27 | 47.87265 | 8.49261 | 9804 ft | 280 kts | 193° |
| 2026-04-26 11:27 | 47.85380 | 8.48686 | 9644 ft | 272 kts | 193° |
| 2026-04-26 11:27 | 47.83577 | 8.48143 | 9588 ft | 254 kts | 193° |
| 2026-04-26 11:27 | 47.81898 | 8.47630 | 9268 ft | 242 kts | 193° |
| 2026-04-26 11:28 | 47.80277 | 8.47158 | 8827 ft | 234 kts | 193° |
| 2026-04-26 11:28 | 47.78698 | 8.46668 | 8457 ft | 229 kts | 194° |
| 2026-04-26 11:28 | 47.77175 | 8.46186 | 8008 ft | 225 kts | 192° |
| 2026-04-26 11:28 | 47.75645 | 8.45731 | 7487 ft | 224 kts | 193° |
| 2026-04-26 11:29 | 47.74120 | 8.45275 | 7059 ft | 222 kts | 192° |
| 2026-04-26 11:29 | 47.72602 | 8.44806 | 6632 ft | 219 kts | 193° |
| 2026-04-26 11:29 | 47.71152 | 8.44359 | 6482 ft | 210 kts | 193° |
| 2026-04-26 11:29 | 47.69699 | 8.43921 | 6465 ft | 220 kts | 194° |
| 2026-04-26 11:30 | 47.68332 | 8.42857 | 6264 ft | 228 kts | 225° |
| 2026-04-26 11:30 | 47.67582 | 8.41682 | 6101 ft | 236 kts | 229° |
| 2026-04-26 11:30 | 47.66148 | 8.39310 | 5639 ft | 229 kts | 229° |
| 2026-04-26 11:30 | 47.65123 | 8.37635 | 5319 ft | 210 kts | 229° |
| 2026-04-26 11:31 | 47.64159 | 8.36082 | 5070 ft | 200 kts | 227° |
| 2026-04-26 11:31 | 47.62979 | 8.35088 | 4756 ft | 193 kts | 189° |
| 2026-04-26 11:31 | 47.61694 | 8.35384 | 4750 ft | 194 kts | 155° |
| 2026-04-26 11:31 | 47.60622 | 8.36629 | 4487 ft | 195 kts | 136° |
| 2026-04-26 11:32 | 47.59659 | 8.37940 | 4314 ft | 181 kts | 137° |
| 2026-04-26 11:32 | 47.58770 | 8.39144 | 4115 ft | 166 kts | 137° |
| 2026-04-26 11:32 | 47.57937 | 8.40291 | 3993 ft | 164 kts | 136° |
| 2026-04-26 11:32 | 47.57084 | 8.41450 | 3778 ft | 167 kts | 136° |
| 2026-04-26 11:33 | 47.56255 | 8.42589 | 3539 ft | 159 kts | 136° |
| 2026-04-26 11:33 | 47.55461 | 8.43676 | 3312 ft | 152 kts | 135° |
| 2026-04-26 11:33 | 47.54733 | 8.44673 | 3011 ft | 139 kts | 135° |
| 2026-04-26 11:33 | 47.54031 | 8.45641 | 2669 ft | 136 kts | 135° |
| 2026-04-26 11:34 | 47.53336 | 8.46594 | 2438 ft | 135 kts | 135° |
| 2026-04-26 11:34 | 47.52653 | 8.47530 | 2386 ft | 136 kts | 134° |
| 2026-04-26 11:34 | 47.51953 | 8.48487 | 2460 ft | 138 kts | 134° |
| 2026-04-26 11:34 | 47.51251 | 8.49462 | 2391 ft | 141 kts | 134° |
| 2026-04-26 11:35 | 47.50536 | 8.50451 | 1987 ft | 138 kts | 132° |
| 2026-04-26 11:35 | 47.49858 | 8.51365 | 1729 ft | 130 kts | 133° |
| 2026-04-26 11:35 | 47.49177 | 8.52269 | 1641 ft | 137 kts | 134° |
| 2026-04-26 11:35 | 47.48697 | 8.52915 | 1573 ft | 140 kts | 133° |
| 2026-04-26 11:36 | 47.47765 | 8.54189 | 1407 ft | 130 kts | 133° |
| 2026-04-26 11:36 | 47.47197 | 8.54987 | 1406 ft | 93 kts | 139° |
| 2026-04-26 11:36 | 47.46853 | 8.55448 | 1408 ft | 53 kts | 138° |
| 2026-04-26 11:36 | 47.46623 | 8.55669 | 1408 ft | 32 kts | 166° |
| 2026-04-26 11:37 | 47.46466 | 8.55722 | 1406 ft | 22 kts | 168° |
| 2026-04-26 11:37 | 47.46332 | 8.55829 | 1410 ft | 22 kts | 140° |
| 2026-04-26 11:37 | 47.46243 | 8.55943 | 1411 ft | 15 kts | 136° |
| 2026-04-26 11:37 | 47.46151 | 8.56002 | 1405 ft | 15 kts | 183° |
| 2026-04-26 11:38 | 47.46050 | 8.55986 | 1405 ft | 13 kts | 186° |
| 2026-04-26 11:38 | 47.45966 | 8.55957 | 1414 ft | 13 kts | 214° |
| 2026-04-26 11:38 | 47.45942 | 8.55836 | 1405 ft | 13 kts | 274° |
| 2026-04-26 11:38 | 47.45951 | 8.55702 | 1409 ft | 14 kts | 276° |
| 2026-04-26 11:39 | 47.45962 | 8.55561 | 1408 ft | 14 kts | 277° |
| 2026-04-26 11:39 | 47.45972 | 8.55418 | 1402 ft | 14 kts | 274° |
| 2026-04-26 11:39 | 47.45979 | 8.55277 | 1408 ft | 8 kts | 275° |
| 2026-04-26 11:39 | 47.46007 | 8.55238 | 1405 ft | 6 kts | 352° |
| 2026-04-26 11:40 | 47.46048 | 8.55238 | 1403 ft | 6 kts | 5° |
| 2026-04-26 11:40 | 47.46067 | 8.55241 | 1401 ft | 1 kts | 7° |
| 2026-04-26 11:40 | 47.46073 | 8.55242 | 1401 ft | 0 kts | 6° |